| time (UTC) | temp F | wind direction | speed MPH | gust MPH | rain 1hr in | rain 24hr in | rain mn in | humidity % | barometer mb |
| 20260507083603 | 49 | 0 | 0.0 | 0.0 | 0.09 | 0.33 | 0.12 | 94 | 1006.4 |
| 20260507082703 | 49 | 0 | 0.0 | 0.0 | 0.07 | 0.31 | 0.10 | 93 | 1006.4 |
| 20260507081803 | 49 | 0 | 0.0 | 0.0 | 0.06 | 0.29 | 0.08 | 93 | 1006.6 |
| 20260507080903 | 49 | 0 | 0.0 | 0.0 | 0.04 | 0.27 | 0.06 | 93 | 1006.6 |
| 20260507080024 | 49 | 0 | 0.0 | 0.0 | 0.04 | 0.27 | 0.06 | 92 | 1006.4 |
| 20260507075403 | 49 | 0 | 0.0 | 0.0 | 0.04 | 0.27 | 0.06 | 92 | 1006.2 |
| 20260507074503 | 50 | 0 | 0.0 | 0.0 | 0.02 | 0.25 | 0.04 | 91 | 1006.7 |
| 20260507073603 | 50 | 299 | 0.0 | 5.0 | 0.01 | 0.24 | 0.03 | 91 | 1006.4 |
| 20260507072703 | 50 | 0 | 0.0 | 0.0 | 0.01 | 0.24 | 0.03 | 90 | 1006.4 |
| 20260507071803 | 50 | 305 | 1.0 | 8.0 | 0.00 | 0.23 | 0.02 | 90 | 1006.4 |
| 20260507070924 | 50 | 284 | 1.0 | 7.0 | 0.00 | 0.23 | 0.02 | 91 | 1005.9 |
| 20260507070005 | 50 | 0 | 0.0 | 0.0 | 0.00 | 0.23 | 0.02 | 91 | 1005.5 |
| 20260507065403 | 51 | 0 | 0.0 | 0.0 | 0.00 | 0.23 | 0.02 | 91 | 1005.3 |
| 20260507064503 | 51 | 0 | 0.0 | 0.0 | 0.00 | 0.23 | 0.02 | 92 | 1005.7 |
| 20260507063624 | 51 | 0 | 0.0 | 0.0 | 0.00 | 0.23 | 0.02 | 91 | 1005.6 |
| 20260507062704 | 52 | 0 | 0.0 | 0.0 | 0.00 | 0.23 | 0.02 | 91 | 1005.6 |
| 20260507061803 | 52 | 0 | 0.0 | 0.0 | 0.00 | 0.23 | 0.02 | 91 | 1005.9 |
| 20260507060903 | 52 | 290 | 1.0 | 6.0 | 0.00 | 0.23 | 0.02 | 91 | 1005.8 |
| 20260507060003 | 53 | 292 | 0.0 | 7.0 | 0.00 | 0.23 | 0.02 | 93 | 1005.7 |
| 20260507055403 | 53 | 308 | 0.0 | 5.0 | 0.00 | 0.23 | 0.02 | 93 | 1005.7 |
| 20260507054524 | 53 | 305 | 1.0 | 9.0 | 0.00 | 0.23 | 0.02 | 93 | 1005.7 |
| 20260507053624 | 54 | 288 | 1.0 | 7.0 | 0.00 | 0.23 | 0.02 | 93 | 1005.9 |
| 20260507052703 | 54 | 301 | 1.0 | 6.0 | 0.00 | 0.23 | 0.02 | 93 | 1005.9 |
| 20260507051803 | 54 | 287 | 0.0 | 3.0 | 0.00 | 0.23 | 0.02 | 93 | 1006.1 |
| 20260507050903 | 54 | 260 | 1.0 | 8.0 | 0.01 | 0.23 | 0.02 | 93 | 1006.0 |
| 20260507050024 | 55 | 0 | 0.0 | 0.0 | 0.02 | 0.23 | 0.02 | 93 | 1006.0 |
| 20260507045403 | 56 | 8 | 0.0 | 3.0 | 0.02 | 0.23 | 0.02 | 94 | 1005.5 |
| 20260507044503 | 56 | 337 | 0.0 | 4.0 | 0.04 | 0.23 | 0.02 | 94 | 1005.8 |
| 20260507043603 | 56 | 309 | 1.0 | 7.0 | 0.06 | 0.23 | 0.02 | 94 | 1005.6 |
| 20260507042703 | 56 | 289 | 0.0 | 4.0 | 0.06 | 0.23 | 0.02 | 94 | 1005.8 |
| 20260507041803 | 56 | 280 | 1.0 | 6.0 | 0.06 | 0.23 | 0.02 | 94 | 1005.8 |
| 20260507040903 | 57 | 293 | 0.0 | 6.0 | 0.05 | 0.22 | 0.01 | 94 | 1005.5 |
| 20260507040004 | 57 | 279 | 0.0 | 5.0 | 0.04 | 0.21 | 0.00 | 94 | 1005.9 |
| 20260507035403 | 57 | 233 | 0.0 | 7.0 | 0.04 | 0.21 | 0.21 | 94 | 1005.8 |
| 20260507034503 | 58 | 239 | 0.0 | 7.0 | 0.02 | 0.19 | 0.19 | 94 | 1005.8 |
| 20260507033603 | 58 | 253 | 1.0 | 6.0 | 0.00 | 0.17 | 0.17 | 94 | 1005.8 |
| 20260507032724 | 58 | 247 | 1.0 | 7.0 | 0.00 | 0.17 | 0.17 | 94 | 1005.8 |
| 20260507031824 | 58 | 238 | 2.0 | 10.0 | 0.00 | 0.17 | 0.17 | 95 | 1005.6 |
| 20260507030903 | 58 | 252 | 2.0 | 13.0 | 0.00 | 0.17 | 0.17 | 95 | 1005.4 |
| 20260507030003 | 58 | 218 | 2.0 | 9.0 | 0.00 | 0.17 | 0.17 | 95 | 1005.2 |
| 20260507025424 | 58 | 226 | 3.0 | 11.0 | 0.00 | 0.17 | 0.17 | 95 | 1005.2 |
| 20260507024503 | 58 | 243 | 2.0 | 10.0 | 0.00 | 0.17 | 0.17 | 95 | 1005.3 |
| 20260507023603 | 58 | 259 | 1.0 | 11.0 | 0.01 | 0.17 | 0.17 | 95 | 1005.1 |
| 20260507022703 | 58 | 233 | 2.0 | 10.0 | 0.01 | 0.17 | 0.17 | 95 | 1005.1 |
| 20260507021803 | 58 | 225 | 2.0 | 8.0 | 0.01 | 0.17 | 0.17 | 95 | 1005.0 |
| 20260507020924 | 58 | 216 | 2.0 | 11.0 | 0.01 | 0.17 | 0.17 | 95 | 1005.1 |
| 20260507020003 | 58 | 177 | 2.0 | 8.0 | 0.01 | 0.17 | 0.17 | 95 | 1005.2 |
| 20260507015403 | 58 | 183 | 2.0 | 8.0 | 0.01 | 0.17 | 0.17 | 95 | 1005.2 |
| 20260507014503 | 58 | 202 | 2.0 | 9.0 | 0.01 | 0.17 | 0.17 | 95 | 1005.2 |
| 20260507013603 | 58 | 222 | 2.0 | 8.0 | 0.00 | 0.16 | 0.16 | 95 | 1005.2 |
| 20260507012703 | 58 | 168 | 3.0 | 9.0 | 0.00 | 0.16 | 0.16 | 95 | 1005.0 |
| 20260507011825 | 58 | 157 | 1.0 | 8.0 | 0.00 | 0.16 | 0.16 | 95 | 1005.2 |
| 20260507010905 | 57 | 222 | 2.0 | 8.0 | 0.00 | 0.16 | 0.16 | 95 | 1005.4 |
| 20260507010004 | 57 | 224 | 1.0 | 9.0 | 0.00 | 0.16 | 0.16 | 95 | 1005.4 |
| 20260507005403 | 57 | 207 | 2.0 | 9.0 | 0.00 | 0.16 | 0.16 | 95 | 1005.5 |
| 20260507004503 | 57 | 256 | 2.0 | 8.0 | 0.00 | 0.16 | 0.16 | 95 | 1005.5 |
| 20260507003603 | 57 | 192 | 4.0 | 10.0 | 0.00 | 0.16 | 0.16 | 95 | 1005.5 |
| 20260507002703 | 57 | 181 | 3.0 | 10.0 | 0.00 | 0.16 | 0.16 | 95 | 1005.5 |
| 20260507001803 | 57 | 213 | 3.0 | 10.0 | 0.01 | 0.16 | 0.16 | 94 | 1005.5 |
| 20260507000903 | 58 | 211 | 2.0 | 12.0 | 0.03 | 0.16 | 0.16 | 94 | 1005.3 |
| 20260507000003 | 58 | 161 | 2.0 | 9.0 | 0.03 | 0.16 | 0.16 | 94 | 1005.2 |
| 20260506235424 | 58 | 163 | 1.0 | 9.0 | 0.03 | 0.16 | 0.16 | 94 | 1005.2 |
| 20260506234503 | 58 | 150 | 1.0 | 6.0 | 0.04 | 0.16 | 0.16 | 94 | 1005.1 |
| 20260506233624 | 58 | 213 | 1.0 | 7.0 | 0.05 | 0.16 | 0.16 | 94 | 1005.2 |
| 20260506232724 | 58 | 179 | 1.0 | 6.0 | 0.05 | 0.16 | 0.16 | 94 | 1005.1 |
| 20260506231803 | 58 | 222 | 2.0 | 9.0 | 0.04 | 0.15 | 0.15 | 94 | 1005.2 |
| 20260506230903 | 58 | 225 | 1.0 | 11.0 | 0.02 | 0.13 | 0.13 | 94 | 1005.1 |
| 20260506230003 | 58 | 168 | 1.0 | 6.0 | 0.02 | 0.13 | 0.13 | 94 | 1005.0 |
| 20260506225403 | 58 | 216 | 2.0 | 8.0 | 0.02 | 0.13 | 0.13 | 93 | 1005.1 |
| 20260506224503 | 58 | 209 | 2.0 | 10.0 | 0.01 | 0.12 | 0.12 | 93 | 1005.2 |
| 20260506223603 | 58 | 219 | 2.0 | 10.0 | 0.00 | 0.11 | 0.11 | 93 | 1005.0 |
| 20260506222703 | 58 | 212 | 1.0 | 11.0 | 0.00 | 0.11 | 0.11 | 93 | 1005.2 |
| 20260506221824 | 58 | 222 | 2.0 | 11.0 | 0.01 | 0.11 | 0.11 | 93 | 1005.1 |
| 20260506220924 | 58 | 201 | 1.0 | 9.0 | 0.01 | 0.11 | 0.11 | 93 | 1005.2 |
| 20260506220024 | 59 | 164 | 1.0 | 8.0 | 0.02 | 0.11 | 0.11 | 93 | 1005.3 |
| 20260506215424 | 59 | 193 | 1.0 | 8.0 | 0.02 | 0.11 | 0.11 | 93 | 1005.4 |
| 20260506213603 | 59 | 208 | 2.0 | 11.0 | 0.02 | 0.11 | 0.11 | 93 | 1005.4 |
| 20260506212703 | 59 | 197 | 2.0 | 11.0 | 0.03 | 0.11 | 0.11 | 93 | 1005.4 |
| 20260506211803 | 59 | 171 | 3.0 | 9.0 | 0.03 | 0.10 | 0.10 | 93 | 1005.7 |
| 20260506210903 | 59 | 189 | 3.0 | 9.0 | 0.03 | 0.10 | 0.10 | 93 | 1005.8 |
| 20260506210024 | 59 | 168 | 3.0 | 11.0 | 0.02 | 0.09 | 0.09 | 93 | 1005.8 |
| 20260506205403 | 59 | 178 | 3.0 | 11.0 | 0.02 | 0.09 | 0.09 | 92 | 1005.8 |
| 20260506204503 | 59 | 197 | 3.0 | 12.0 | 0.02 | 0.09 | 0.09 | 93 | 1005.9 |
| 20260506203603 | 59 | 180 | 2.0 | 12.0 | 0.02 | 0.09 | 0.09 | 92 | 1005.8 |
| 20260506202703 | 59 | 159 | 3.0 | 10.0 | 0.02 | 0.08 | 0.08 | 92 | 1005.9 |
| 20260506201803 | 59 | 177 | 3.0 | 18.0 | 0.01 | 0.07 | 0.07 | 92 | 1006.0 |
| 20260506200903 | 59 | 227 | 2.0 | 14.0 | 0.02 | 0.07 | 0.07 | 91 | 1006.1 |
| 20260506200004 | 59 | 192 | 5.0 | 12.0 | 0.03 | 0.07 | 0.07 | 90 | 1006.2 |
| 20260506195403 | 59 | 185 | 4.0 | 12.0 | 0.04 | 0.07 | 0.07 | 90 | 1006.3 |
| 20260506194503 | 59 | 171 | 3.0 | 10.0 | 0.05 | 0.07 | 0.07 | 90 | 1006.2 |
| 20260506193603 | 60 | 212 | 3.0 | 11.0 | 0.06 | 0.07 | 0.07 | 91 | 1006.3 |
| 20260506192703 | 60 | 190 | 2.0 | 9.0 | 0.05 | 0.06 | 0.06 | 91 | 1006.3 |
| 20260506191824 | 60 | 188 | 3.0 | 11.0 | 0.06 | 0.06 | 0.06 | 89 | 1006.3 |
| 20260506190903 | 60 | 191 | 3.0 | 11.0 | 0.05 | 0.05 | 0.05 | 88 | 1006.4 |
| 20260506190003 | 61 | 190 | 2.0 | 11.0 | 0.04 | 0.04 | 0.04 | 87 | 1006.6 |
| 20260506185403 | 62 | 190 | 2.0 | 11.0 | 0.03 | 0.03 | 0.03 | 86 | 1006.5 |
| 20260506184503 | 63 | 188 | 1.0 | 8.0 | 0.02 | 0.02 | 0.02 | 85 | 1006.6 |
| 20260506183624 | 63 | 188 | 3.0 | 11.0 | 0.01 | 0.01 | 0.01 | 82 | 1006.8 |
| 20260506182703 | 64 | 159 | 3.0 | 11.0 | 0.01 | 0.01 | 0.01 | 79 | 1006.8 |
| 20260506181803 | 65 | 182 | 2.0 | 9.0 | 0.00 | 0.00 | 0.00 | 78 | 1006.9 |
| 20260506180903 | 66 | 191 | 3.0 | 11.0 | 0.00 | 0.00 | 0.00 | 75 | 1007.0 |
| 20260506180004 | 66 | 174 | 3.0 | 15.0 | 0.00 | 0.00 | 0.00 | 71 | 1007.0 |
| 20260506175403 | 67 | 186 | 5.0 | 15.0 | 0.00 | 0.00 | 0.00 | 71 | 1007.0 |
| 20260506174503 | 68 | 182 | 6.0 | 13.0 | 0.00 | 0.00 | 0.00 | 68 | 1007.2 |
| 20260506173603 | 69 | 179 | 8.0 | 17.0 | 0.00 | 0.00 | 0.00 | 65 | 1007.2 |
| 20260506172703 | 70 | 226 | 6.0 | 16.0 | 0.00 | 0.00 | 0.00 | 63 | 1007.0 |
| 20260506171824 | 70 | 181 | 8.0 | 25.0 | 0.00 | 0.00 | 0.00 | 62 | 1007.0 |
| 20260506170903 | 71 | 175 | 7.0 | 18.0 | 0.00 | 0.00 | 0.00 | 62 | 1007.2 |
| 20260506170004 | 71 | 188 | 6.0 | 24.0 | 0.00 | 0.00 | 0.00 | 61 | 1007.0 |
| 20260506165403 | 71 | 182 | 6.0 | 24.0 | 0.00 | 0.00 | 0.00 | 62 | 1007.1 |
| 20260506164503 | 71 | 171 | 8.0 | 21.0 | 0.00 | 0.00 | 0.00 | 61 | 1007.2 |
| 20260506163603 | 71 | 165 | 6.0 | 13.0 | 0.00 | 0.00 | 0.00 | 63 | 1007.2 |
| 20260506162703 | 70 | 176 | 8.0 | 19.0 | 0.00 | 0.00 | 0.00 | 63 | 1007.5 |
| 20260506161824 | 71 | 200 | 5.0 | 19.0 | 0.00 | 0.00 | 0.00 | 61 | 1007.6 |
| 20260506160924 | 71 | 207 | 4.0 | 16.0 | 0.00 | 0.00 | 0.00 | 62 | 1007.6 |
| 20260506160003 | 71 | 206 | 6.0 | 20.0 | 0.00 | 0.00 | 0.00 | 62 | 1007.8 |
| 20260506155403 | 71 | 173 | 6.0 | 20.0 | 0.00 | 0.00 | 0.00 | 61 | 1007.7 |
| 20260506154503 | 71 | 182 | 5.0 | 18.0 | 0.00 | 0.00 | 0.00 | 62 | 1007.8 |
| 20260506153603 | 71 | 194 | 4.0 | 19.0 | 0.00 | 0.00 | 0.00 | 62 | 1007.9 |
| 20260506152703 | 70 | 186 | 4.0 | 14.0 | 0.00 | 0.00 | 0.00 | 64 | 1008.1 |
| 20260506151803 | 70 | 201 | 6.0 | 18.0 | 0.00 | 0.00 | 0.00 | 64 | 1008.1 |
| 20260506150924 | 69 | 201 | 7.0 | 19.0 | 0.00 | 0.00 | 0.00 | 65 | 1008.3 |
| 20260506150003 | 69 | 197 | 4.0 | 11.0 | 0.00 | 0.00 | 0.00 | 67 | 1008.4 |
| 20260506145403 | 68 | 195 | 6.0 | 17.0 | 0.00 | 0.00 | 0.00 | 68 | 1008.5 |
| 20260506144503 | 68 | 210 | 5.0 | 17.0 | 0.00 | 0.00 | 0.00 | 67 | 1008.5 |
| 20260506143603 | 68 | 167 | 4.0 | 14.0 | 0.00 | 0.00 | 0.00 | 67 | 1008.5 |
| 20260506142703 | 68 | 172 | 3.0 | 14.0 | 0.00 | 0.00 | 0.00 | 68 | 1008.5 |
| 20260506141803 | 68 | 186 | 4.0 | 14.0 | 0.00 | 0.00 | 0.00 | 69 | 1008.5 |
| 20260506140903 | 68 | 180 | 5.0 | 14.0 | 0.00 | 0.00 | 0.00 | 68 | 1008.4 |
| 20260506140024 | 67 | 184 | 6.0 | 18.0 | 0.00 | 0.00 | 0.00 | 70 | 1008.2 |
| 20260506135403 | 67 | 184 | 4.0 | 13.0 | 0.00 | 0.00 | 0.00 | 71 | 1008.4 |
| 20260506134503 | 66 | 174 | 5.0 | 21.0 | 0.00 | 0.00 | 0.00 | 73 | 1008.4 |
| 20260506133603 | 65 | 205 | 5.0 | 16.0 | 0.00 | 0.00 | 0.00 | 74 | 1008.3 |
| 20260506132703 | 64 | 192 | 5.0 | 12.0 | 0.00 | 0.00 | 0.00 | 75 | 1008.4 |
| 20260506131803 | 64 | 199 | 3.0 | 11.0 | 0.00 | 0.00 | 0.00 | 79 | 1008.9 |
| 20260506130903 | 63 | 202 | 5.0 | 17.0 | 0.00 | 0.00 | 0.00 | 79 | 1009.0 |
| 20260506130004 | 62 | 194 | 5.0 | 11.0 | 0.00 | 0.00 | 0.00 | 79 | 1009.2 |
| 20260506125424 | 62 | 208 | 5.0 | 11.0 | 0.00 | 0.00 | 0.00 | 79 | 1009.1 |
| 20260506124503 | 62 | 219 | 2.0 | 11.0 | 0.00 | 0.00 | 0.00 | 79 | 1008.9 |
| 20260506123603 | 62 | 204 | 4.0 | 14.0 | 0.00 | 0.00 | 0.00 | 81 | 1009.0 |
| 20260506122704 | 62 | 209 | 3.0 | 12.0 | 0.00 | 0.00 | 0.00 | 81 | 1009.0 |
| 20260506121803 | 61 | 200 | 4.0 | 12.0 | 0.00 | 0.00 | 0.00 | 81 | 1009.2 |
| 20260506120004 | 60 | 194 | 4.0 | 16.0 | 0.00 | 0.00 | 0.00 | 83 | 1009.0 |
| 20260506115403 | 60 | 178 | 5.0 | 18.0 | 0.00 | 0.00 | 0.00 | 83 | 1009.0 |
| 20260506114503 | 60 | 193 | 4.0 | 10.0 | 0.00 | 0.00 | 0.00 | 84 | 1009.2 |
| 20260506113603 | 59 | 205 | 5.0 | 14.0 | 0.00 | 0.00 | 0.00 | 84 | 1009.3 |
| 20260506112703 | 59 | 201 | 5.0 | 22.0 | 0.00 | 0.00 | 0.00 | 83 | 1009.5 |
| 20260506111803 | 59 | 228 | 3.0 | 14.0 | 0.00 | 0.00 | 0.00 | 84 | 1009.7 |
| 20260506110903 | 59 | 165 | 3.0 | 11.0 | 0.00 | 0.00 | 0.00 | 85 | 1009.4 |
| 20260506105403 | 58 | 189 | 2.0 | 8.0 | 0.00 | 0.00 | 0.00 | 86 | 1009.2 |
| 20260506104503 | 58 | 174 | 1.0 | 7.0 | 0.00 | 0.00 | 0.00 | 86 | 1009.2 |
| 20260506103603 | 58 | 180 | 1.0 | 6.0 | 0.00 | 0.00 | 0.00 | 86 | 1009.2 |
| 20260506102703 | 58 | 194 | 2.0 | 8.0 | 0.00 | 0.00 | 0.00 | 86 | 1009.1 |
| 20260506101803 | 58 | 199 | 2.0 | 11.0 | 0.00 | 0.00 | 0.00 | 86 | 1009.3 |
| 20260506100903 | 58 | 206 | 3.0 | 11.0 | 0.00 | 0.00 | 0.00 | 86 | 1009.1 |
| 20260506100003 | 58 | 204 | 2.0 | 8.0 | 0.00 | 0.00 | 0.00 | 85 | 1009.2 |
| 20260506095403 | 58 | 206 | 2.0 | 9.0 | 0.00 | 0.00 | 0.00 | 85 | 1009.1 |
| 20260506093603 | 58 | 199 | 4.0 | 10.0 | 0.00 | 0.00 | 0.00 | 85 | 1009.1 |
| 20260506092703 | 58 | 207 | 2.0 | 8.0 | 0.00 | 0.00 | 0.00 | 85 | 1009.0 |
| 20260506091803 | 58 | 215 | 4.0 | 11.0 | 0.00 | 0.00 | 0.00 | 85 | 1009.1 |
| 20260506090903 | 58 | 195 | 2.0 | 12.0 | 0.00 | 0.00 | 0.00 | 85 | 1009.1 |
| 20260506090003 | 58 | 179 | 2.0 | 12.0 | 0.00 | 0.00 | 0.00 | 85 | 1009.1 |
| 20260506085403 | 58 | 180 | 1.0 | 8.0 | 0.00 | 0.00 | 0.00 | 85 | 1009.2 |
| 20260506084503 | 58 | 174 | 2.0 | 12.0 | 0.00 | 0.00 | 0.00 | 84 | 1009.2 |